sensor_id;sensor_type;location;lat;lon;timestamp;P1;durP1;ratioP1;P2;durP2;ratioP2
10088;SDS011;51898;49.864;8.550;2022-11-20T00:02:40;42.33;;;20.60;;
10088;SDS011;51898;49.864;8.550;2022-11-20T00:05:42;43.17;;;20.03;;
10088;SDS011;51898;49.864;8.550;2022-11-20T00:08:45;40.37;;;20.13;;
10088;SDS011;51898;49.864;8.550;2022-11-20T00:11:52;40.63;;;20.17;;
10088;SDS011;51898;49.864;8.550;2022-11-20T00:14:54;39.87;;;20.73;;
10088;SDS011;51898;49.864;8.550;2022-11-20T00:17:56;40.40;;;19.60;;
10088;SDS011;51898;49.864;8.550;2022-11-20T00:21:01;39.67;;;20.43;;
10088;SDS011;51898;49.864;8.550;2022-11-20T00:24:08;43.97;;;21.50;;
10088;SDS011;51898;49.864;8.550;2022-11-20T00:27:11;39.63;;;20.07;;
10088;SDS011;51898;49.864;8.550;2022-11-20T00:33:15;42.67;;;20.90;;
10088;SDS011;51898;49.864;8.550;2022-11-20T00:36:18;37.80;;;19.80;;
10088;SDS011;51898;49.864;8.550;2022-11-20T00:39:34;38.00;;;19.37;;
10088;SDS011;51898;49.864;8.550;2022-11-20T00:42:38;42.60;;;19.30;;
10088;SDS011;51898;49.864;8.550;2022-11-20T00:45:40;39.20;;;19.70;;
10088;SDS011;51898;49.864;8.550;2022-11-20T00:49:23;40.97;;;20.07;;
10088;SDS011;51898;49.864;8.550;2022-11-20T00:52:25;36.50;;;19.33;;
10088;SDS011;51898;49.864;8.550;2022-11-20T00:55:27;42.27;;;20.10;;
10088;SDS011;51898;49.864;8.550;2022-11-20T00:58:32;41.53;;;19.77;;
10088;SDS011;51898;49.864;8.550;2022-11-20T01:01:35;41.93;;;19.77;;
10088;SDS011;51898;49.864;8.550;2022-11-20T01:04:38;39.03;;;19.77;;
10088;SDS011;51898;49.864;8.550;2022-11-20T01:07:45;34.53;;;18.00;;
10088;SDS011;51898;49.864;8.550;2022-11-20T01:10:47;38.87;;;18.20;;
10088;SDS011;51898;49.864;8.550;2022-11-20T01:13:50;32.57;;;18.17;;
10088;SDS011;51898;49.864;8.550;2022-11-20T01:16:53;35.03;;;18.00;;
10088;SDS011;51898;49.864;8.550;2022-11-20T01:19:58;38.97;;;18.53;;
10088;SDS011;51898;49.864;8.550;2022-11-20T01:23:09;37.67;;;19.37;;
10088;SDS011;51898;49.864;8.550;2022-11-20T01:26:17;40.97;;;19.73;;
10088;SDS011;51898;49.864;8.550;2022-11-20T01:29:22;38.60;;;19.83;;
10088;SDS011;51898;49.864;8.550;2022-11-20T01:32:25;37.93;;;19.73;;
10088;SDS011;51898;49.864;8.550;2022-11-20T01:35:27;46.13;;;22.10;;
10088;SDS011;51898;49.864;8.550;2022-11-20T01:38:29;43.07;;;19.80;;
10088;SDS011;51898;49.864;8.550;2022-11-20T01:41:31;38.53;;;19.87;;
10088;SDS011;51898;49.864;8.550;2022-11-20T01:44:54;37.07;;;18.80;;
10088;SDS011;51898;49.864;8.550;2022-11-20T01:47:59;42.70;;;19.43;;
10088;SDS011;51898;49.864;8.550;2022-11-20T01:51:17;47.07;;;23.67;;
10088;SDS011;51898;49.864;8.550;2022-11-20T01:54:42;41.13;;;21.03;;
10088;SDS011;51898;49.864;8.550;2022-11-20T01:57:49;44.83;;;23.33;;
10088;SDS011;51898;49.864;8.550;2022-11-20T02:04:07;42.90;;;22.27;;
10088;SDS011;51898;49.864;8.550;2022-11-20T02:07:11;41.23;;;21.60;;
10088;SDS011;51898;49.864;8.550;2022-11-20T02:10:14;41.27;;;20.10;;
10088;SDS011;51898;49.864;8.550;2022-11-20T02:13:16;41.70;;;21.80;;
10088;SDS011;51898;49.864;8.550;2022-11-20T02:16:37;45.20;;;20.67;;
10088;SDS011;51898;49.864;8.550;2022-11-20T02:19:47;46.93;;;21.47;;
10088;SDS011;51898;49.864;8.550;2022-11-20T02:26:04;45.80;;;22.03;;
10088;SDS011;51898;49.864;8.550;2022-11-20T02:29:31;48.00;;;22.57;;
10088;SDS011;51898;49.864;8.550;2022-11-20T02:32:35;43.97;;;20.77;;
10088;SDS011;51898;49.864;8.550;2022-11-20T02:35:44;50.63;;;23.27;;
10088;SDS011;51898;49.864;8.550;2022-11-20T02:38:56;47.73;;;22.77;;
10088;SDS011;51898;49.864;8.550;2022-11-20T02:42:01;52.63;;;23.50;;
10088;SDS011;51898;49.864;8.550;2022-11-20T02:45:04;51.03;;;23.83;;
10088;SDS011;51898;49.864;8.550;2022-11-20T02:48:06;54.60;;;23.73;;
10088;SDS011;51898;49.864;8.550;2022-11-20T02:51:09;48.97;;;21.50;;
10088;SDS011;51898;49.864;8.550;2022-11-20T02:54:10;44.00;;;21.57;;
10088;SDS011;51898;49.864;8.550;2022-11-20T02:57:14;42.67;;;21.37;;
10088;SDS011;51898;49.864;8.550;2022-11-20T03:00:24;46.53;;;22.73;;
10088;SDS011;51898;49.864;8.550;2022-11-20T03:03:34;48.73;;;22.73;;
10088;SDS011;51898;49.864;8.550;2022-11-20T03:06:39;47.73;;;21.93;;
10088;SDS011;51898;49.864;8.550;2022-11-20T03:09:42;48.60;;;21.30;;
10088;SDS011;51898;49.864;8.550;2022-11-20T03:12:44;48.33;;;21.70;;
10088;SDS011;51898;49.864;8.550;2022-11-20T03:15:46;48.27;;;22.57;;
10088;SDS011;51898;49.864;8.550;2022-11-20T03:18:48;47.80;;;22.47;;
10088;SDS011;51898;49.864;8.550;2022-11-20T03:21:52;45.13;;;21.07;;
10088;SDS011;51898;49.864;8.550;2022-11-20T03:24:54;43.80;;;20.67;;
10088;SDS011;51898;49.864;8.550;2022-11-20T03:27:56;45.90;;;20.27;;
10088;SDS011;51898;49.864;8.550;2022-11-20T03:30:58;42.77;;;21.03;;
10088;SDS011;51898;49.864;8.550;2022-11-20T03:34:23;44.23;;;21.37;;
10088;SDS011;51898;49.864;8.550;2022-11-20T03:37:25;46.80;;;22.73;;
10088;SDS011;51898;49.864;8.550;2022-11-20T03:40:27;48.33;;;20.70;;
10088;SDS011;51898;49.864;8.550;2022-11-20T03:43:28;46.13;;;21.13;;
10088;SDS011;51898;49.864;8.550;2022-11-20T03:46:33;44.73;;;21.07;;
10088;SDS011;51898;49.864;8.550;2022-11-20T03:49:34;44.90;;;21.53;;
10088;SDS011;51898;49.864;8.550;2022-11-20T03:52:36;40.83;;;19.87;;
10088;SDS011;51898;49.864;8.550;2022-11-20T03:55:38;45.03;;;20.50;;
10088;SDS011;51898;49.864;8.550;2022-11-20T03:58:40;47.17;;;20.67;;
10088;SDS011;51898;49.864;8.550;2022-11-20T04:01:42;47.17;;;21.47;;
10088;SDS011;51898;49.864;8.550;2022-11-20T04:04:49;42.70;;;20.17;;
10088;SDS011;51898;49.864;8.550;2022-11-20T04:07:54;47.53;;;21.17;;
10088;SDS011;51898;49.864;8.550;2022-11-20T04:10:56;47.87;;;20.90;;
10088;SDS011;51898;49.864;8.550;2022-11-20T04:14:22;41.03;;;19.80;;
10088;SDS011;51898;49.864;8.550;2022-11-20T04:17:23;40.97;;;21.27;;
10088;SDS011;51898;49.864;8.550;2022-11-20T04:20:25;48.23;;;21.20;;
10088;SDS011;51898;49.864;8.550;2022-11-20T04:23:27;46.33;;;20.50;;
10088;SDS011;51898;49.864;8.550;2022-11-20T04:26:29;37.07;;;18.10;;
10088;SDS011;51898;49.864;8.550;2022-11-20T04:29:37;36.50;;;19.57;;
10088;SDS011;51898;49.864;8.550;2022-11-20T04:32:39;45.03;;;19.73;;
10088;SDS011;51898;49.864;8.550;2022-11-20T04:35:40;39.23;;;18.43;;
10088;SDS011;51898;49.864;8.550;2022-11-20T04:38:42;40.77;;;19.13;;
10088;SDS011;51898;49.864;8.550;2022-11-20T04:41:45;33.23;;;17.90;;
10088;SDS011;51898;49.864;8.550;2022-11-20T04:44:46;38.73;;;18.67;;
10088;SDS011;51898;49.864;8.550;2022-11-20T04:47:48;35.30;;;18.27;;
10088;SDS011;51898;49.864;8.550;2022-11-20T04:50:50;37.43;;;17.83;;
10088;SDS011;51898;49.864;8.550;2022-11-20T04:53:53;39.03;;;18.60;;
10088;SDS011;51898;49.864;8.550;2022-11-20T04:56:55;39.00;;;18.73;;
10088;SDS011;51898;49.864;8.550;2022-11-20T04:59:56;44.00;;;20.23;;
10088;SDS011;51898;49.864;8.550;2022-11-20T05:02:59;34.63;;;17.33;;
10088;SDS011;51898;49.864;8.550;2022-11-20T05:06:01;37.77;;;18.70;;
10088;SDS011;51898;49.864;8.550;2022-11-20T05:09:06;38.53;;;19.20;;
10088;SDS011;51898;49.864;8.550;2022-11-20T05:12:09;43.00;;;20.17;;
10088;SDS011;51898;49.864;8.550;2022-11-20T05:15:11;39.93;;;18.40;;
10088;SDS011;51898;49.864;8.550;2022-11-20T05:18:13;37.73;;;18.47;;
10088;SDS011;51898;49.864;8.550;2022-11-20T05:21:23;34.23;;;17.87;;
10088;SDS011;51898;49.864;8.550;2022-11-20T05:24:25;34.50;;;17.50;;
10088;SDS011;51898;49.864;8.550;2022-11-20T05:27:30;38.27;;;18.50;;
10088;SDS011;51898;49.864;8.550;2022-11-20T05:30:31;40.13;;;19.60;;
10088;SDS011;51898;49.864;8.550;2022-11-20T05:33:34;38.30;;;18.40;;
10088;SDS011;51898;49.864;8.550;2022-11-20T05:36:36;37.73;;;16.93;;
10088;SDS011;51898;49.864;8.550;2022-11-20T05:39:38;36.93;;;17.53;;
10088;SDS011;51898;49.864;8.550;2022-11-20T05:42:40;31.20;;;17.03;;
10088;SDS011;51898;49.864;8.550;2022-11-20T05:45:51;43.27;;;21.40;;
10088;SDS011;51898;49.864;8.550;2022-11-20T05:48:56;41.10;;;20.30;;
10088;SDS011;51898;49.864;8.550;2022-11-20T05:51:58;35.63;;;17.13;;
10088;SDS011;51898;49.864;8.550;2022-11-20T05:55:00;43.10;;;19.70;;
10088;SDS011;51898;49.864;8.550;2022-11-20T05:58:02;48.00;;;22.30;;
10088;SDS011;51898;49.864;8.550;2022-11-20T06:01:12;35.47;;;18.50;;
10088;SDS011;51898;49.864;8.550;2022-11-20T06:04:15;32.83;;;18.13;;
10088;SDS011;51898;49.864;8.550;2022-11-20T06:07:19;36.67;;;18.30;;
10088;SDS011;51898;49.864;8.550;2022-11-20T06:10:21;41.10;;;19.00;;
10088;SDS011;51898;49.864;8.550;2022-11-20T06:13:23;38.27;;;18.93;;
10088;SDS011;51898;49.864;8.550;2022-11-20T06:16:25;35.23;;;17.00;;
10088;SDS011;51898;49.864;8.550;2022-11-20T06:19:27;39.00;;;18.17;;
10088;SDS011;51898;49.864;8.550;2022-11-20T06:22:29;37.13;;;17.77;;
10088;SDS011;51898;49.864;8.550;2022-11-20T06:25:31;42.43;;;20.13;;
10088;SDS011;51898;49.864;8.550;2022-11-20T06:28:32;39.93;;;18.67;;
10088;SDS011;51898;49.864;8.550;2022-11-20T06:31:40;40.80;;;20.20;;
10088;SDS011;51898;49.864;8.550;2022-11-20T06:34:45;40.53;;;18.63;;
10088;SDS011;51898;49.864;8.550;2022-11-20T06:37:47;41.90;;;19.43;;
10088;SDS011;51898;49.864;8.550;2022-11-20T06:40:49;41.30;;;19.93;;
10088;SDS011;51898;49.864;8.550;2022-11-20T06:43:54;103.93;;;40.80;;
10088;SDS011;51898;49.864;8.550;2022-11-20T06:46:56;39.40;;;19.00;;
10088;SDS011;51898;49.864;8.550;2022-11-20T06:49:57;43.17;;;21.00;;
10088;SDS011;51898;49.864;8.550;2022-11-20T06:53:00;39.17;;;17.97;;
10088;SDS011;51898;49.864;8.550;2022-11-20T06:56:05;37.83;;;19.07;;
10088;SDS011;51898;49.864;8.550;2022-11-20T06:59:08;43.23;;;20.20;;
10088;SDS011;51898;49.864;8.550;2022-11-20T07:02:10;43.13;;;19.70;;
10088;SDS011;51898;49.864;8.550;2022-11-20T07:05:13;38.13;;;17.40;;
10088;SDS011;51898;49.864;8.550;2022-11-20T07:08:24;37.47;;;17.77;;
10088;SDS011;51898;49.864;8.550;2022-11-20T07:11:29;36.87;;;19.07;;
10088;SDS011;51898;49.864;8.550;2022-11-20T07:14:31;38.60;;;18.80;;
10088;SDS011;51898;49.864;8.550;2022-11-20T07:17:35;38.63;;;18.87;;
10088;SDS011;51898;49.864;8.550;2022-11-20T07:20:37;39.70;;;18.80;;
10088;SDS011;51898;49.864;8.550;2022-11-20T07:23:39;39.07;;;18.13;;
10088;SDS011;51898;49.864;8.550;2022-11-20T07:26:41;34.57;;;17.00;;
10088;SDS011;51898;49.864;8.550;2022-11-20T07:29:42;39.77;;;17.30;;
10088;SDS011;51898;49.864;8.550;2022-11-20T07:32:47;37.93;;;18.63;;
10088;SDS011;51898;49.864;8.550;2022-11-20T07:35:52;31.40;;;15.43;;
10088;SDS011;51898;49.864;8.550;2022-11-20T07:38:54;35.90;;;16.80;;
10088;SDS011;51898;49.864;8.550;2022-11-20T07:41:56;35.07;;;16.50;;
10088;SDS011;51898;49.864;8.550;2022-11-20T07:44:57;38.47;;;17.40;;
10088;SDS011;51898;49.864;8.550;2022-11-20T07:47:59;39.27;;;18.33;;
10088;SDS011;51898;49.864;8.550;2022-11-20T07:51:01;35.67;;;17.70;;
10088;SDS011;51898;49.864;8.550;2022-11-20T07:54:03;36.83;;;16.77;;
10088;SDS011;51898;49.864;8.550;2022-11-20T07:57:05;38.40;;;18.40;;
10088;SDS011;51898;49.864;8.550;2022-11-20T08:00:07;42.27;;;18.13;;
10088;SDS011;51898;49.864;8.550;2022-11-20T08:03:10;40.40;;;18.07;;
10088;SDS011;51898;49.864;8.550;2022-11-20T08:06:12;38.87;;;17.47;;
10088;SDS011;51898;49.864;8.550;2022-11-20T08:09:15;37.87;;;18.90;;
10088;SDS011;51898;49.864;8.550;2022-11-20T08:12:17;35.13;;;16.30;;
10088;SDS011;51898;49.864;8.550;2022-11-20T08:15:39;39.70;;;16.83;;
10088;SDS011;51898;49.864;8.550;2022-11-20T08:18:41;35.90;;;16.17;;
10088;SDS011;51898;49.864;8.550;2022-11-20T08:21:43;36.77;;;16.07;;
10088;SDS011;51898;49.864;8.550;2022-11-20T08:24:45;31.53;;;15.10;;
10088;SDS011;51898;49.864;8.550;2022-11-20T08:27:46;30.43;;;14.33;;
10088;SDS011;51898;49.864;8.550;2022-11-20T08:30:48;26.53;;;15.27;;
10088;SDS011;51898;49.864;8.550;2022-11-20T08:33:51;33.77;;;17.77;;
10088;SDS011;51898;49.864;8.550;2022-11-20T08:36:53;29.87;;;15.23;;
10088;SDS011;51898;49.864;8.550;2022-11-20T08:39:55;29.90;;;15.77;;
10088;SDS011;51898;49.864;8.550;2022-11-20T08:42:58;32.00;;;16.80;;
10088;SDS011;51898;49.864;8.550;2022-11-20T08:45:59;33.00;;;15.77;;
10088;SDS011;51898;49.864;8.550;2022-11-20T08:49:01;26.80;;;15.20;;
10088;SDS011;51898;49.864;8.550;2022-11-20T08:52:04;28.47;;;15.50;;
10088;SDS011;51898;49.864;8.550;2022-11-20T08:55:07;27.23;;;15.23;;
10088;SDS011;51898;49.864;8.550;2022-11-20T08:58:09;28.83;;;15.50;;
10088;SDS011;51898;49.864;8.550;2022-11-20T09:01:11;31.90;;;15.57;;
10088;SDS011;51898;49.864;8.550;2022-11-20T09:04:12;30.53;;;16.97;;
10088;SDS011;51898;49.864;8.550;2022-11-20T09:07:15;33.60;;;16.63;;
10088;SDS011;51898;49.864;8.550;2022-11-20T09:10:17;26.00;;;14.83;;
10088;SDS011;51898;49.864;8.550;2022-11-20T09:13:26;28.83;;;15.40;;
10088;SDS011;51898;49.864;8.550;2022-11-20T09:16:31;28.87;;;16.10;;
10088;SDS011;51898;49.864;8.550;2022-11-20T09:19:33;30.17;;;16.40;;
10088;SDS011;51898;49.864;8.550;2022-11-20T09:22:39;28.90;;;15.70;;
10088;SDS011;51898;49.864;8.550;2022-11-20T09:25:41;29.03;;;14.37;;
10088;SDS011;51898;49.864;8.550;2022-11-20T09:28:43;29.40;;;16.90;;
10088;SDS011;51898;49.864;8.550;2022-11-20T09:31:45;24.93;;;14.23;;
10088;SDS011;51898;49.864;8.550;2022-11-20T09:34:47;29.27;;;16.30;;
10088;SDS011;51898;49.864;8.550;2022-11-20T09:37:48;28.17;;;15.37;;
10088;SDS011;51898;49.864;8.550;2022-11-20T09:41:04;24.33;;;14.63;;
10088;SDS011;51898;49.864;8.550;2022-11-20T09:44:24;27.57;;;14.80;;
10088;SDS011;51898;49.864;8.550;2022-11-20T09:47:52;29.33;;;16.60;;
10088;SDS011;51898;49.864;8.550;2022-11-20T09:51:12;29.83;;;17.17;;
10088;SDS011;51898;49.864;8.550;2022-11-20T09:54:18;26.27;;;15.10;;
10088;SDS011;51898;49.864;8.550;2022-11-20T09:57:23;29.27;;;16.00;;
10088;SDS011;51898;49.864;8.550;2022-11-20T10:00:34;32.30;;;16.90;;
10088;SDS011;51898;49.864;8.550;2022-11-20T10:03:49;28.13;;;16.37;;
10088;SDS011;51898;49.864;8.550;2022-11-20T10:07:02;28.87;;;16.00;;
10088;SDS011;51898;49.864;8.550;2022-11-20T10:10:35;28.50;;;15.93;;
10088;SDS011;51898;49.864;8.550;2022-11-20T10:21:38;29.93;;;15.27;;
10088;SDS011;51898;49.864;8.550;2022-11-20T10:31:44;27.40;;;15.17;;
10088;SDS011;51898;49.864;8.550;2022-11-20T10:34:55;23.13;;;13.80;;
10088;SDS011;51898;49.864;8.550;2022-11-20T10:38:18;24.80;;;14.50;;
10088;SDS011;51898;49.864;8.550;2022-11-20T10:41:29;29.17;;;16.00;;
10088;SDS011;51898;49.864;8.550;2022-11-20T10:44:37;27.60;;;15.87;;
10088;SDS011;51898;49.864;8.550;2022-11-20T10:55:07;27.10;;;17.23;;
10088;SDS011;51898;49.864;8.550;2022-11-20T10:58:23;29.73;;;15.80;;
10088;SDS011;51898;49.864;8.550;2022-11-20T11:01:42;28.30;;;15.63;;
10088;SDS011;51898;49.864;8.550;2022-11-20T11:04:45;27.83;;;15.23;;
10088;SDS011;51898;49.864;8.550;2022-11-20T11:07:51;29.50;;;16.30;;
10088;SDS011;51898;49.864;8.550;2022-11-20T11:11:00;28.30;;;15.60;;
10088;SDS011;51898;49.864;8.550;2022-11-20T11:14:19;30.80;;;15.97;;
10088;SDS011;51898;49.864;8.550;2022-11-20T11:20:33;29.53;;;16.33;;
10088;SDS011;51898;49.864;8.550;2022-11-20T11:23:36;30.43;;;16.80;;
10088;SDS011;51898;49.864;8.550;2022-11-20T11:26:40;33.17;;;17.70;;
10088;SDS011;51898;49.864;8.550;2022-11-20T11:30:03;26.47;;;15.53;;
10088;SDS011;51898;49.864;8.550;2022-11-20T11:33:19;29.80;;;16.83;;
10088;SDS011;51898;49.864;8.550;2022-11-20T11:36:23;28.43;;;17.30;;
10088;SDS011;51898;49.864;8.550;2022-11-20T11:39:26;30.97;;;17.60;;
10088;SDS011;51898;49.864;8.550;2022-11-20T11:42:29;28.33;;;16.00;;
10088;SDS011;51898;49.864;8.550;2022-11-20T11:45:31;27.77;;;17.20;;
10088;SDS011;51898;49.864;8.550;2022-11-20T11:48:33;27.53;;;16.10;;
10088;SDS011;51898;49.864;8.550;2022-11-20T11:54:51;32.33;;;17.40;;
10088;SDS011;51898;49.864;8.550;2022-11-20T11:58:09;32.00;;;17.17;;
10088;SDS011;51898;49.864;8.550;2022-11-20T12:01:44;33.63;;;19.27;;
10088;SDS011;51898;49.864;8.550;2022-11-20T12:11:49;35.07;;;20.90;;
10088;SDS011;51898;49.864;8.550;2022-11-20T12:15:00;29.37;;;17.10;;
10088;SDS011;51898;49.864;8.550;2022-11-20T12:18:07;30.40;;;17.33;;
10088;SDS011;51898;49.864;8.550;2022-11-20T12:21:19;37.70;;;21.43;;
10088;SDS011;51898;49.864;8.550;2022-11-20T12:28:13;36.23;;;19.73;;
10088;SDS011;51898;49.864;8.550;2022-11-20T12:31:52;27.47;;;15.70;;
10088;SDS011;51898;49.864;8.550;2022-11-20T12:49:34;26.73;;;17.77;;
10088;SDS011;51898;49.864;8.550;2022-11-20T12:52:48;32.20;;;17.33;;
10088;SDS011;51898;49.864;8.550;2022-11-20T13:06:15;37.17;;;22.33;;
10088;SDS011;51898;49.864;8.550;2022-11-20T13:09:20;81.23;;;41.17;;
10088;SDS011;51898;49.864;8.550;2022-11-20T13:15:45;34.87;;;19.07;;
10088;SDS011;51898;49.864;8.550;2022-11-20T13:18:53;35.13;;;20.50;;
10088;SDS011;51898;49.864;8.550;2022-11-20T13:21:55;32.37;;;17.00;;
10088;SDS011;51898;49.864;8.550;2022-11-20T13:24:56;47.60;;;28.70;;
10088;SDS011;51898;49.864;8.550;2022-11-20T13:27:59;32.13;;;17.93;;
10088;SDS011;51898;49.864;8.550;2022-11-20T13:31:04;26.43;;;15.67;;
10088;SDS011;51898;49.864;8.550;2022-11-20T13:34:05;28.53;;;15.70;;
10088;SDS011;51898;49.864;8.550;2022-11-20T13:37:23;33.97;;;18.40;;
10088;SDS011;51898;49.864;8.550;2022-11-20T13:40:27;32.67;;;18.20;;
10088;SDS011;51898;49.864;8.550;2022-11-20T13:43:37;25.10;;;15.20;;
10088;SDS011;51898;49.864;8.550;2022-11-20T13:46:42;33.17;;;19.40;;
10088;SDS011;51898;49.864;8.550;2022-11-20T13:49:45;48.77;;;30.00;;
10088;SDS011;51898;49.864;8.550;2022-11-20T13:55:54;87.10;;;45.13;;
10088;SDS011;51898;49.864;8.550;2022-11-20T14:02:32;28.57;;;18.27;;
10088;SDS011;51898;49.864;8.550;2022-11-20T14:05:37;38.23;;;22.90;;
10088;SDS011;51898;49.864;8.550;2022-11-20T14:08:43;29.73;;;17.37;;
10088;SDS011;51898;49.864;8.550;2022-11-20T14:11:50;30.70;;;18.33;;
10088;SDS011;51898;49.864;8.550;2022-11-20T14:14:52;31.53;;;18.20;;
10088;SDS011;51898;49.864;8.550;2022-11-20T14:17:55;29.27;;;16.70;;
10088;SDS011;51898;49.864;8.550;2022-11-20T14:21:00;34.03;;;20.03;;
10088;SDS011;51898;49.864;8.550;2022-11-20T14:24:05;31.47;;;19.80;;
10088;SDS011;51898;49.864;8.550;2022-11-20T14:27:14;30.40;;;16.70;;
10088;SDS011;51898;49.864;8.550;2022-11-20T14:30:19;49.97;;;27.37;;
10088;SDS011;51898;49.864;8.550;2022-11-20T14:33:25;36.57;;;20.07;;
10088;SDS011;51898;49.864;8.550;2022-11-20T14:36:27;31.83;;;18.33;;
10088;SDS011;51898;49.864;8.550;2022-11-20T14:39:33;35.20;;;21.30;;
10088;SDS011;51898;49.864;8.550;2022-11-20T14:42:36;30.97;;;21.23;;
10088;SDS011;51898;49.864;8.550;2022-11-20T14:45:38;34.90;;;23.20;;
10088;SDS011;51898;49.864;8.550;2022-11-20T14:48:44;34.13;;;19.40;;
10088;SDS011;51898;49.864;8.550;2022-11-20T14:51:59;39.27;;;20.27;;
10088;SDS011;51898;49.864;8.550;2022-11-20T14:55:02;41.87;;;25.90;;
10088;SDS011;51898;49.864;8.550;2022-11-20T14:58:21;47.10;;;29.40;;
10088;SDS011;51898;49.864;8.550;2022-11-20T15:01:31;37.17;;;22.93;;
10088;SDS011;51898;49.864;8.550;2022-11-20T15:04:43;46.40;;;27.83;;
10088;SDS011;51898;49.864;8.550;2022-11-20T15:07:50;42.43;;;22.80;;
10088;SDS011;51898;49.864;8.550;2022-11-20T15:11:15;51.80;;;30.57;;
10088;SDS011;51898;49.864;8.550;2022-11-20T15:14:21;62.80;;;38.03;;
10088;SDS011;51898;49.864;8.550;2022-11-20T15:17:25;44.03;;;23.87;;
10088;SDS011;51898;49.864;8.550;2022-11-20T15:20:28;62.30;;;34.60;;
10088;SDS011;51898;49.864;8.550;2022-11-20T15:23:33;52.93;;;29.93;;
10088;SDS011;51898;49.864;8.550;2022-11-20T15:26:35;51.90;;;26.00;;
10088;SDS011;51898;49.864;8.550;2022-11-20T15:29:39;50.63;;;28.07;;
10088;SDS011;51898;49.864;8.550;2022-11-20T15:32:41;45.87;;;28.30;;
10088;SDS011;51898;49.864;8.550;2022-11-20T15:35:43;60.10;;;37.23;;
10088;SDS011;51898;49.864;8.550;2022-11-20T15:38:45;38.77;;;21.40;;
10088;SDS011;51898;49.864;8.550;2022-11-20T15:41:47;35.50;;;22.87;;
10088;SDS011;51898;49.864;8.550;2022-11-20T15:44:48;35.90;;;19.40;;
10088;SDS011;51898;49.864;8.550;2022-11-20T15:47:50;31.07;;;18.30;;
10088;SDS011;51898;49.864;8.550;2022-11-20T15:53:55;28.53;;;17.60;;
10088;SDS011;51898;49.864;8.550;2022-11-20T15:56:57;26.50;;;16.50;;
10088;SDS011;51898;49.864;8.550;2022-11-20T16:00:00;27.67;;;16.17;;
10088;SDS011;51898;49.864;8.550;2022-11-20T16:03:01;33.13;;;16.37;;
10088;SDS011;51898;49.864;8.550;2022-11-20T16:06:04;23.40;;;14.67;;
10088;SDS011;51898;49.864;8.550;2022-11-20T16:09:06;26.80;;;15.47;;
10088;SDS011;51898;49.864;8.550;2022-11-20T16:12:09;24.20;;;15.10;;
10088;SDS011;51898;49.864;8.550;2022-11-20T16:15:31;23.70;;;13.87;;
10088;SDS011;51898;49.864;8.550;2022-11-20T16:18:48;20.63;;;14.60;;
10088;SDS011;51898;49.864;8.550;2022-11-20T16:21:50;19.73;;;12.50;;
10088;SDS011;51898;49.864;8.550;2022-11-20T16:24:52;28.40;;;21.27;;
10088;SDS011;51898;49.864;8.550;2022-11-20T16:27:53;19.00;;;13.13;;
10088;SDS011;51898;49.864;8.550;2022-11-20T16:30:55;20.97;;;13.17;;
10088;SDS011;51898;49.864;8.550;2022-11-20T16:33:58;25.20;;;14.40;;
10088;SDS011;51898;49.864;8.550;2022-11-20T16:37:02;20.90;;;13.20;;
10088;SDS011;51898;49.864;8.550;2022-11-20T16:40:04;14.40;;;8.80;;
10088;SDS011;51898;49.864;8.550;2022-11-20T16:43:08;15.00;;;8.80;;
10088;SDS011;51898;49.864;8.550;2022-11-20T16:46:11;17.90;;;8.70;;
10088;SDS011;51898;49.864;8.550;2022-11-20T16:49:13;15.10;;;9.13;;
10088;SDS011;51898;49.864;8.550;2022-11-20T16:52:15;11.47;;;8.23;;
10088;SDS011;51898;49.864;8.550;2022-11-20T16:55:17;9.50;;;7.83;;
10088;SDS011;51898;49.864;8.550;2022-11-20T16:58:18;7.23;;;6.53;;
10088;SDS011;51898;49.864;8.550;2022-11-20T17:01:22;13.60;;;6.73;;
10088;SDS011;51898;49.864;8.550;2022-11-20T17:04:25;11.97;;;6.37;;
10088;SDS011;51898;49.864;8.550;2022-11-20T17:07:27;6.93;;;4.63;;
10088;SDS011;51898;49.864;8.550;2022-11-20T17:10:28;5.70;;;4.10;;
10088;SDS011;51898;49.864;8.550;2022-11-20T17:13:30;6.10;;;3.60;;
10088;SDS011;51898;49.864;8.550;2022-11-20T17:16:38;8.10;;;4.20;;
10088;SDS011;51898;49.864;8.550;2022-11-20T17:19:40;13.23;;;8.37;;
10088;SDS011;51898;49.864;8.550;2022-11-20T17:22:42;7.73;;;6.73;;
10088;SDS011;51898;49.864;8.550;2022-11-20T17:25:46;6.33;;;4.90;;
10088;SDS011;51898;49.864;8.550;2022-11-20T17:28:54;4.37;;;3.70;;
10088;SDS011;51898;49.864;8.550;2022-11-20T17:31:59;4.80;;;3.00;;
10088;SDS011;51898;49.864;8.550;2022-11-20T17:35:00;5.17;;;2.37;;
10088;SDS011;51898;49.864;8.550;2022-11-20T17:38:02;8.47;;;3.00;;
10088;SDS011;51898;49.864;8.550;2022-11-20T17:41:08;5.27;;;3.57;;
10088;SDS011;51898;49.864;8.550;2022-11-20T17:44:14;4.30;;;2.60;;
10088;SDS011;51898;49.864;8.550;2022-11-20T17:47:15;4.63;;;2.57;;
10088;SDS011;51898;49.864;8.550;2022-11-20T17:50:17;9.53;;;2.90;;
10088;SDS011;51898;49.864;8.550;2022-11-20T17:53:19;6.77;;;3.17;;
10088;SDS011;51898;49.864;8.550;2022-11-20T17:56:21;4.83;;;3.47;;
10088;SDS011;51898;49.864;8.550;2022-11-20T17:59:42;3.30;;;3.00;;
10088;SDS011;51898;49.864;8.550;2022-11-20T18:02:43;5.40;;;3.40;;
10088;SDS011;51898;49.864;8.550;2022-11-20T18:05:45;3.57;;;3.27;;
10088;SDS011;51898;49.864;8.550;2022-11-20T18:08:47;4.67;;;4.13;;
10088;SDS011;51898;49.864;8.550;2022-11-20T18:11:50;8.03;;;4.30;;
10088;SDS011;51898;49.864;8.550;2022-11-20T18:14:51;6.77;;;5.20;;
10088;SDS011;51898;49.864;8.550;2022-11-20T18:17:53;6.30;;;4.30;;
10088;SDS011;51898;49.864;8.550;2022-11-20T18:20:55;9.63;;;3.20;;
10088;SDS011;51898;49.864;8.550;2022-11-20T18:23:57;11.37;;;8.10;;
10088;SDS011;51898;49.864;8.550;2022-11-20T18:26:59;4.80;;;4.23;;
10088;SDS011;51898;49.864;8.550;2022-11-20T18:30:01;7.37;;;4.97;;
10088;SDS011;51898;49.864;8.550;2022-11-20T18:33:03;4.63;;;4.23;;
10088;SDS011;51898;49.864;8.550;2022-11-20T18:36:09;4.90;;;4.20;;
10088;SDS011;51898;49.864;8.550;2022-11-20T18:39:11;4.23;;;3.50;;
10088;SDS011;51898;49.864;8.550;2022-11-20T18:42:14;6.23;;;4.73;;
10088;SDS011;51898;49.864;8.550;2022-11-20T18:45:35;6.33;;;5.70;;
10088;SDS011;51898;49.864;8.550;2022-11-20T18:48:36;9.20;;;7.60;;
10088;SDS011;51898;49.864;8.550;2022-11-20T18:51:39;20.83;;;14.57;;
10088;SDS011;51898;49.864;8.550;2022-11-20T18:54:41;12.10;;;8.60;;
10088;SDS011;51898;49.864;8.550;2022-11-20T18:57:43;11.17;;;6.07;;
10088;SDS011;51898;49.864;8.550;2022-11-20T19:00:44;10.30;;;9.13;;
10088;SDS011;51898;49.864;8.550;2022-11-20T19:03:46;5.73;;;4.00;;
10088;SDS011;51898;49.864;8.550;2022-11-20T19:06:48;7.07;;;5.10;;
10088;SDS011;51898;49.864;8.550;2022-11-20T19:09:50;7.10;;;4.87;;
10088;SDS011;51898;49.864;8.550;2022-11-20T19:12:52;10.63;;;5.57;;
10088;SDS011;51898;49.864;8.550;2022-11-20T19:15:54;5.17;;;4.00;;
10088;SDS011;51898;49.864;8.550;2022-11-20T19:19:05;8.23;;;4.30;;
10088;SDS011;51898;49.864;8.550;2022-11-20T19:22:07;5.50;;;3.03;;
10088;SDS011;51898;49.864;8.550;2022-11-20T19:25:09;3.87;;;2.73;;
10088;SDS011;51898;49.864;8.550;2022-11-20T19:28:11;4.70;;;2.67;;
10088;SDS011;51898;49.864;8.550;2022-11-20T19:31:14;3.13;;;2.60;;
10088;SDS011;51898;49.864;8.550;2022-11-20T19:34:24;4.50;;;3.07;;
10088;SDS011;51898;49.864;8.550;2022-11-20T19:37:26;5.63;;;3.23;;